Archival Weather

Chicago O'Hare International

Chicago, Illinois (KORD)

Report from: Monday, January 2, 2023 9:51 PM CST
Current time: Monday, June 17, 2024 1:31 AM CDT

Current weather – Weather history – Daily summaries
Weather forecast

Present weatherMist
Temperature3.3°C (37.9°F)
Wind chill-0.9°C (30.5°F)
Dew point1.7°C (35.1°F)
Winds 10 kts (5.1 m/s, 11.5 mph) East-Northeast (60°)
Visibility1.3 mi. (2 km)
Clouds Ceiling: Overcast 200 ft. (61 m)
Altimeter29.90 in.Hg (1013 mB)
Relative humidity89 %
Density altitude-1,305 ft. (-398 m)
Sea-level pressure101.3 kPa (1013 mB, 29.91 in.Hg)
Remarks Automated weather observing station with precipitation discriminator
Pressure falling rapidly
Flight conditions Low Instrument Meteorological Conditions
Raw dataKORD 030351Z 06010KT 1 1/4SM BR OVC002 03/02 A2990 RMK AO2 PRESFR SLP129 T00330017
An error has occurred. This application may no longer respond until reloaded. Reload 🗙